To NAV CANADA Home Page Login to a new session Search on AWWS site Feedback and Comments Disclaimer Vers la page française équivalente Tips FAQ What's new on the site To the Forecasts and Observations / NOTAM section To "File a Flight Plan" website Publications and other links Update of the User's profile FIC Telephone Numbers My Weather Data Folder Route Weather Data Regional Weather Data Local Weather Data To the Forecasts and Observations / NOTAM section
Request Generated 04/20/2014 at 13:18:47 UTC . Weather information available at that time is displayed.

METAR/TAF

ARVIAT/NU    

SPECI CYEK 201303Z AUTO 35007KT 1/4SM +SN VV001 M16/M18 A3005 RMK
SLP178=
SPECI CYEK 201301Z AUTO 36007KT 1/4SM FZFG VV001 M16/M18 A3005 RMK
SLP178=
METAR CYEK 201300Z AUTO 36007KT 1/4SM +SN VV001 M16/M18 A3005 RMK
SLP178=
SPECI CYEK 201236Z AUTO 36007KT 1/8SM +SN VV001 M16/M17 A3005 RMK
SLP178=
SPECI CYEK 201233Z AUTO 36007KT 1/8SM FZFG VV001 M16/M18 A3005 RMK
SLP178=
SPECI CYEK 201208Z AUTO 36008KT 1/8SM +SN VV001 M17/M18 A3005 RMK
SLP178=
METAR CYEK 201200Z AUTO 36008KT 1/8SM FZFG VV001 M17/M18 A3005 RMK
SLP178=
SPECI CYEK 201155Z AUTO 35007KT 1/8SM FZFG VV001 M17/M18 A3006 RMK
SLP179=
SPECI CYEK 201137Z AUTO 36007KT 1/8SM +SN VV001 M16/M18 A3006 RMK
SLP179=
SPECI CYEK 201135Z AUTO 36006KT 1/8SM FZFG VV001 M16/M18 A3006 RMK
SLP179=
METAR CYEK 201100Z AUTO 36007KT 1/4SM +SN VV001 M16/M17 A3005 RMK
SLP177=

TAF CYEK 201138Z 2012/2024 36005KT 1/2SM -SN FZFG BKN002 TEMPO
2012/2016 P6SM NSW SCT006
FM201600 13007KT P6SM FEW012
RMK FCST BASED ON AUTO OBS. NXT FCST BY 201800Z=
Your time UTC time
Weather data provided by Environment Canada and NAV CANADA